To NAV CANADA Home Page Login to a new session Search on AWWS site Disclaimer Vers la page française équivalente Tips FAQ What's new on the site To the Forecasts and Observations / NOTAM section To "File a Flight Plan" website Publications and other links Update of the User's profile FIC Telephone Numbers My Weather Data Folder Route Weather Data Regional Weather Data Local Weather Data To the Forecasts and Observations / NOTAM section
Request Generated 11/16/2018 at 02:09:52 UTC . Weather information available at that time is displayed.

METAR/TAF

CALGARY/YYC CALGARY INTL/AB    

METAR CYYC 160200Z 00000KT 15SM BKN093 BKN130 BKN210 01/M05 A2978 RMK AC5AC1CI1 CI TR SLP132=
METAR CYYC 160100Z VRB02KT 15SM SCT072 BKN230 05/M05 A2980 RMK AC3CI2 SLP132=
METAR CYYC 160000Z 19002KT 40SM BKN080 BKN210 04/M05 A2983 RMK AC5CI1 SLP138=

TAF CYYC 152339Z 1600/1624 22010KT P6SM BKN080 BKN200 TEMPO 1600/1603
FEW080 SCT120 BKN240
FM160300 25010KT P6SM BKN080 BKN120 OVC200 TEMPO 1603/1606 P6SM
-SHRA
FM160600 32015G25KT P6SM SCT020 BKN060 OVC120 TEMPO 1606/1609 5SM
-SHSN
FM160900 35020G30KT 2SM -SHSN SCT008 OVC020 PROB40 1609/1613
34030G45KT 1/2SM SN BLSN VV004
FM161300 36018G28KT P6SM -SN BKN015 OVC040 TEMPO 1613/1616 2SM
-SHSN OVC008
FM161600 36010KT P6SM BKN015 BKN040 TEMPO 1616/1624 4SM -SN
RMK NXT FCST BY 160300Z=
Your time UTC time
Weather data provided by Environment Canada and NAV CANADA